sensor_id;sensor_type;location;lat;lon;timestamp;pressure;altitude;pressure_sealevel;temperature;humidity
53719;BME280;39616;48.872;9.390;2022-12-07T00:00:24;98411.78;;;2.23;100.00
53719;BME280;39616;48.872;9.390;2022-12-07T00:02:55;98414.94;;;2.20;100.00
53719;BME280;39616;48.872;9.390;2022-12-07T00:05:25;98413.88;;;2.21;100.00
53719;BME280;39616;48.872;9.390;2022-12-07T00:07:56;98408.53;;;2.21;100.00
53719;BME280;39616;48.872;9.390;2022-12-07T00:10:26;98406.75;;;2.26;100.00
53719;BME280;39616;48.872;9.390;2022-12-07T00:12:56;98414.38;;;2.17;100.00
53719;BME280;39616;48.872;9.390;2022-12-07T00:15:26;98408.03;;;2.24;100.00
53719;BME280;39616;48.872;9.390;2022-12-07T00:17:57;98400.50;;;2.21;100.00
53719;BME280;39616;48.872;9.390;2022-12-07T00:20:27;98397.34;;;2.24;100.00
53719;BME280;39616;48.872;9.390;2022-12-07T00:23:00;98408.53;;;2.21;100.00
53719;BME280;39616;48.872;9.390;2022-12-07T00:25:30;98408.84;;;2.24;100.00
53719;BME280;39616;48.872;9.390;2022-12-07T00:28:01;98407.84;;;2.13;100.00
53719;BME280;39616;48.872;9.390;2022-12-07T00:30:31;98414.50;;;2.11;100.00
53719;BME280;39616;48.872;9.390;2022-12-07T00:33:01;98407.84;;;2.13;100.00
53719;BME280;39616;48.872;9.390;2022-12-07T00:35:32;98406.50;;;2.11;100.00
53719;BME280;39616;48.872;9.390;2022-12-07T00:38:02;98399.81;;;2.13;100.00
53719;BME280;39616;48.872;9.390;2022-12-07T00:40:32;98408.44;;;2.15;100.00
53719;BME280;39616;48.872;9.390;2022-12-07T00:43:02;98402.50;;;2.13;100.00
53719;BME280;39616;48.872;9.390;2022-12-07T00:45:33;98398.31;;;2.17;100.00
53719;BME280;39616;48.872;9.390;2022-12-07T00:48:03;98396.94;;;2.15;100.00
53719;BME280;39616;48.872;9.390;2022-12-07T00:50:33;98395.66;;;2.17;100.00
53719;BME280;39616;48.872;9.390;2022-12-07T00:53:04;98391.59;;;2.15;100.00
53719;BME280;39616;48.872;9.390;2022-12-07T00:55:35;98403.56;;;2.12;100.00
53719;BME280;39616;48.872;9.390;2022-12-07T00:58:05;98404.63;;;2.11;100.00
53719;BME280;39616;48.872;9.390;2022-12-07T01:00:37;98411.97;;;2.04;100.00
53719;BME280;39616;48.872;9.390;2022-12-07T01:03:09;98412.38;;;1.96;100.00
53719;BME280;39616;48.872;9.390;2022-12-07T01:05:40;98404.56;;;1.94;100.00
53719;BME280;39616;48.872;9.390;2022-12-07T01:08:10;98407.47;;;1.93;100.00
53719;BME280;39616;48.872;9.390;2022-12-07T01:10:40;98404.00;;;1.92;100.00
53719;BME280;39616;48.872;9.390;2022-12-07T01:13:11;98411.78;;;1.94;100.00
53719;BME280;39616;48.872;9.390;2022-12-07T01:15:42;98408.63;;;1.97;100.00
53719;BME280;39616;48.872;9.390;2022-12-07T01:18:13;98408.88;;;1.96;100.00
53719;BME280;39616;48.872;9.390;2022-12-07T01:20:43;98417.72;;;1.96;100.00
53719;BME280;39616;48.872;9.390;2022-12-07T01:23:14;98418.75;;;1.95;100.00
53719;BME280;39616;48.872;9.390;2022-12-07T01:25:44;98410.97;;;1.93;100.00
53719;BME280;39616;48.872;9.390;2022-12-07T01:28:15;98412.38;;;1.96;100.00
53719;BME280;39616;48.872;9.390;2022-12-07T01:30:57;98415.25;;;1.94;100.00
53719;BME280;39616;48.872;9.390;2022-12-07T01:33:29;98416.56;;;1.92;100.00
53719;BME280;39616;48.872;9.390;2022-12-07T01:36:49;98412.84;;;1.93;100.00
53719;BME280;39616;48.872;9.390;2022-12-07T01:39:00;98412.25;;;1.91;100.00
53719;BME280;39616;48.872;9.390;2022-12-07T01:41:33;98405.97;;;1.97;100.00
53719;BME280;39616;48.872;9.390;2022-12-07T01:44:20;98413.50;;;2.00;100.00
53719;BME280;39616;48.872;9.390;2022-12-07T01:46:54;98417.31;;;2.04;100.00
53719;BME280;39616;48.872;9.390;2022-12-07T01:49:31;98422.94;;;2.03;100.00
53719;BME280;39616;48.872;9.390;2022-12-07T01:52:22;98419.53;;;2.07;100.00
53719;BME280;39616;48.872;9.390;2022-12-07T01:55:00;98417.91;;;2.06;100.00
53719;BME280;39616;48.872;9.390;2022-12-07T01:57:33;98417.41;;;2.09;100.00
53719;BME280;39616;48.872;9.390;2022-12-07T02:00:07;98427.09;;;2.10;100.00
53719;BME280;39616;48.872;9.390;2022-12-07T02:02:44;98424.28;;;2.05;100.00
53719;BME280;39616;48.872;9.390;2022-12-07T02:05:17;98425.34;;;2.04;100.00
53719;BME280;39616;48.872;9.390;2022-12-07T02:07:49;98421.41;;;2.07;100.00
53719;BME280;39616;48.872;9.390;2022-12-07T02:10:22;98420.34;;;2.08;100.00
53719;BME280;39616;48.872;9.390;2022-12-07T02:13:13;98414.50;;;2.11;100.00
53719;BME280;39616;48.872;9.390;2022-12-07T02:21:40;98421.63;;;2.05;100.00
53719;BME280;39616;48.872;9.390;2022-12-07T02:30:06;98412.31;;;2.08;100.00
53719;BME280;39616;48.872;9.390;2022-12-07T02:35:51;98407.03;;;2.13;100.00
53719;BME280;39616;48.872;9.390;2022-12-07T02:38:37;98396.34;;;2.13;100.00
53719;BME280;39616;48.872;9.390;2022-12-07T02:41:33;98396.13;;;2.14;100.00
53719;BME280;39616;48.872;9.390;2022-12-07T02:44:08;98398.78;;;2.14;100.00
53719;BME280;39616;48.872;9.390;2022-12-07T02:46:42;98390.78;;;2.14;100.00
53719;BME280;39616;48.872;9.390;2022-12-07T02:49:13;98390.44;;;2.11;100.00
53719;BME280;39616;48.872;9.390;2022-12-07T02:51:45;98391.25;;;2.11;100.00
53719;BME280;39616;48.872;9.390;2022-12-07T02:54:18;98386.97;;;2.10;100.00
53719;BME280;39616;48.872;9.390;2022-12-07T02:57:17;98385.81;;;2.06;100.00
53719;BME280;39616;48.872;9.390;2022-12-07T03:00:07;98385.81;;;2.06;100.00
53719;BME280;39616;48.872;9.390;2022-12-07T03:02:41;98384.97;;;2.06;100.00
53719;BME280;39616;48.872;9.390;2022-12-07T03:05:37;98383.34;;;2.05;100.00
53719;BME280;39616;48.872;9.390;2022-12-07T03:08:21;98384.66;;;2.02;100.00
53719;BME280;39616;48.872;9.390;2022-12-07T03:13:45;98391.44;;;1.93;100.00
53719;BME280;39616;48.872;9.390;2022-12-07T03:16:25;98386.91;;;1.93;100.00
53719;BME280;39616;48.872;9.390;2022-12-07T03:19:04;98389.31;;;1.95;100.00
53719;BME280;39616;48.872;9.390;2022-12-07T03:21:46;98383.41;;;1.93;100.00
53719;BME280;39616;48.872;9.390;2022-12-07T03:24:21;98384.47;;;1.92;100.00
53719;BME280;39616;48.872;9.390;2022-12-07T03:26:56;98384.94;;;1.89;100.00
53719;BME280;39616;48.872;9.390;2022-12-07T03:29:37;98382.28;;;1.89;100.00
53719;BME280;39616;48.872;9.390;2022-12-07T03:32:30;98383.56;;;1.86;100.00
53719;BME280;39616;48.872;9.390;2022-12-07T03:37:40;98380.06;;;1.86;100.00
53719;BME280;39616;48.872;9.390;2022-12-07T03:40:33;98383.00;;;1.84;100.00
53719;BME280;39616;48.872;9.390;2022-12-07T03:43:05;98377.06;;;1.82;100.00
53719;BME280;39616;48.872;9.390;2022-12-07T03:51:07;98369.97;;;1.76;100.00
53719;BME280;39616;48.872;9.390;2022-12-07T03:53:50;98369.66;;;1.73;100.00
53719;BME280;39616;48.872;9.390;2022-12-07T03:56:24;98375.72;;;1.68;100.00
53719;BME280;39616;48.872;9.390;2022-12-07T03:58:56;98368.16;;;1.65;100.00
53719;BME280;39616;48.872;9.390;2022-12-07T04:01:27;98371.56;;;1.60;100.00
53719;BME280;39616;48.872;9.390;2022-12-07T04:03:57;98366.25;;;1.49;100.00
53719;BME280;39616;48.872;9.390;2022-12-07T04:06:27;98366.63;;;1.40;100.00
53719;BME280;39616;48.872;9.390;2022-12-07T04:08:58;98359.78;;;1.33;100.00
53719;BME280;39616;48.872;9.390;2022-12-07T04:11:28;98357.22;;;1.26;100.00
53719;BME280;39616;48.872;9.390;2022-12-07T04:13:58;98350.16;;;1.20;100.00
53719;BME280;39616;48.872;9.390;2022-12-07T04:16:52;98350.88;;;1.15;100.00
53719;BME280;39616;48.872;9.390;2022-12-07T04:19:26;98335.66;;;1.16;100.00
53719;BME280;39616;48.872;9.390;2022-12-07T04:21:58;98317.66;;;1.11;100.00
53719;BME280;39616;48.872;9.390;2022-12-07T04:24:28;98319.75;;;1.09;100.00
53719;BME280;39616;48.872;9.390;2022-12-07T04:26:59;98317.88;;;1.10;100.00
53719;BME280;39616;48.872;9.390;2022-12-07T04:29:29;98313.22;;;1.17;100.00
53719;BME280;39616;48.872;9.390;2022-12-07T04:31:59;98307.28;;;1.27;100.00
53719;BME280;39616;48.872;9.390;2022-12-07T04:34:30;98322.25;;;1.28;100.00
53719;BME280;39616;48.872;9.390;2022-12-07T04:37:00;98318.06;;;1.32;100.00
53719;BME280;39616;48.872;9.390;2022-12-07T04:39:31;98319.00;;;1.37;100.00
53719;BME280;39616;48.872;9.390;2022-12-07T04:42:02;98326.28;;;1.42;100.00
53719;BME280;39616;48.872;9.390;2022-12-07T04:44:33;98326.16;;;1.49;100.00
53719;BME280;39616;48.872;9.390;2022-12-07T04:47:03;98317.88;;;1.50;100.00
53719;BME280;39616;48.872;9.390;2022-12-07T04:49:34;98305.31;;;1.62;100.00
53719;BME280;39616;48.872;9.390;2022-12-07T04:52:04;98313.88;;;1.64;100.00
53719;BME280;39616;48.872;9.390;2022-12-07T04:54:35;98314.13;;;1.63;100.00
53719;BME280;39616;48.872;9.390;2022-12-07T04:57:05;98322.63;;;1.60;100.00
53719;BME280;39616;48.872;9.390;2022-12-07T04:59:35;98338.09;;;1.58;100.00
53719;BME280;39616;48.872;9.390;2022-12-07T05:02:06;98343.41;;;1.69;100.00
53719;BME280;39616;48.872;9.390;2022-12-07T05:04:36;98342.25;;;1.65;100.00
53719;BME280;39616;48.872;9.390;2022-12-07T05:07:06;98345.16;;;1.64;100.00
53719;BME280;39616;48.872;9.390;2022-12-07T05:09:37;98347.16;;;1.57;100.00
53719;BME280;39616;48.872;9.390;2022-12-07T05:12:07;98346.91;;;1.58;100.00
53719;BME280;39616;48.872;9.390;2022-12-07T05:14:37;98343.59;;;1.51;100.00
53719;BME280;39616;48.872;9.390;2022-12-07T05:17:08;98340.00;;;1.45;100.00
53719;BME280;39616;48.872;9.390;2022-12-07T05:19:38;98354.63;;;1.43;100.00
53719;BME280;39616;48.872;9.390;2022-12-07T05:22:08;98353.25;;;1.40;100.00
53719;BME280;39616;48.872;9.390;2022-12-07T05:24:39;98357.31;;;1.43;100.00
53719;BME280;39616;48.872;9.390;2022-12-07T05:27:10;98351.88;;;1.38;100.00
53719;BME280;39616;48.872;9.390;2022-12-07T05:29:40;98349.56;;;1.30;100.00
53719;BME280;39616;48.872;9.390;2022-12-07T05:32:10;98349.69;;;1.23;100.00
53719;BME280;39616;48.872;9.390;2022-12-07T05:34:40;98348.53;;;1.19;100.00
53719;BME280;39616;48.872;9.390;2022-12-07T05:37:11;98349.47;;;1.13;100.00
53719;BME280;39616;48.872;9.390;2022-12-07T05:39:41;98356.06;;;1.10;100.00
53719;BME280;39616;48.872;9.390;2022-12-07T05:42:12;98363.53;;;1.08;100.00
53719;BME280;39616;48.872;9.390;2022-12-07T05:44:44;98352.75;;;1.03;100.00
53719;BME280;39616;48.872;9.390;2022-12-07T05:47:15;98352.75;;;1.03;100.00
53719;BME280;39616;48.872;9.390;2022-12-07T05:49:46;98360.75;;;1.03;100.00
53719;BME280;39616;48.872;9.390;2022-12-07T05:52:16;98365.84;;;1.05;100.00
53719;BME280;39616;48.872;9.390;2022-12-07T05:54:47;98365.59;;;1.06;100.00
53719;BME280;39616;48.872;9.390;2022-12-07T05:57:18;98363.06;;;1.11;100.00
53719;BME280;39616;48.872;9.390;2022-12-07T05:59:48;98355.16;;;1.16;100.00
53719;BME280;39616;48.872;9.390;2022-12-07T06:02:18;98350.63;;;1.17;100.00
53719;BME280;39616;48.872;9.390;2022-12-07T06:04:49;98355.75;;;1.18;100.00
53719;BME280;39616;48.872;9.390;2022-12-07T06:07:19;98359.91;;;1.26;100.00
53719;BME280;39616;48.872;9.390;2022-12-07T06:09:49;98360.03;;;1.19;100.00
53719;BME280;39616;48.872;9.390;2022-12-07T06:12:20;98353.41;;;1.10;100.00
53719;BME280;39616;48.872;9.390;2022-12-07T06:15:05;98353.06;;;1.07;100.00
53719;BME280;39616;48.872;9.390;2022-12-07T06:17:36;98356.56;;;1.07;100.00
53719;BME280;39616;48.872;9.390;2022-12-07T06:20:07;98357.38;;;1.08;100.00
53719;BME280;39616;48.872;9.390;2022-12-07T06:22:37;98358.75;;;1.10;100.00
53719;BME280;39616;48.872;9.390;2022-12-07T06:25:08;98356.56;;;1.07;100.00
53719;BME280;39616;48.872;9.390;2022-12-07T06:27:38;98351.44;;;1.06;100.00
53719;BME280;39616;48.872;9.390;2022-12-07T06:30:09;98355.06;;;1.11;100.00
53719;BME280;39616;48.872;9.390;2022-12-07T06:32:39;98351.56;;;1.11;100.00
53719;BME280;39616;48.872;9.390;2022-12-07T06:35:10;98352.38;;;1.11;100.00
53719;BME280;39616;48.872;9.390;2022-12-07T06:37:40;98367.34;;;1.12;100.00
53719;BME280;39616;48.872;9.390;2022-12-07T06:40:10;98375.25;;;1.19;100.00
53719;BME280;39616;48.872;9.390;2022-12-07T06:42:41;98366.66;;;1.17;100.00
53719;BME280;39616;48.872;9.390;2022-12-07T06:45:11;98371.53;;;1.20;100.00
53719;BME280;39616;48.872;9.390;2022-12-07T06:47:41;98370.00;;;1.24;100.00
53719;BME280;39616;48.872;9.390;2022-12-07T06:50:12;98374.19;;;1.20;100.00
53719;BME280;39616;48.872;9.390;2022-12-07T06:52:42;98362.69;;;1.19;100.00
53719;BME280;39616;48.872;9.390;2022-12-07T06:55:12;98363.50;;;1.20;100.00
53719;BME280;39616;48.872;9.390;2022-12-07T06:57:43;98367.22;;;1.31;100.00
53719;BME280;39616;48.872;9.390;2022-12-07T07:00:14;98369.78;;;1.26;100.00
53719;BME280;39616;48.872;9.390;2022-12-07T07:02:44;98374.78;;;1.22;100.00
53719;BME280;39616;48.872;9.390;2022-12-07T07:05:14;98370.59;;;1.26;100.00
53719;BME280;39616;48.872;9.390;2022-12-07T07:07:46;98365.13;;;1.21;100.00
53719;BME280;39616;48.872;9.390;2022-12-07T07:10:17;98371.31;;;1.22;100.00
53719;BME280;39616;48.872;9.390;2022-12-07T07:12:48;98371.88;;;1.24;100.00
53719;BME280;39616;48.872;9.390;2022-12-07T07:15:18;98372.09;;;1.34;100.00
53719;BME280;39616;48.872;9.390;2022-12-07T07:17:48;98374.06;;;1.27;100.00
53719;BME280;39616;48.872;9.390;2022-12-07T07:20:19;98368.94;;;1.25;100.00
53719;BME280;39616;48.872;9.390;2022-12-07T07:22:49;98377.22;;;1.24;100.00
53719;BME280;39616;48.872;9.390;2022-12-07T07:25:19;98378.38;;;1.28;100.00
53719;BME280;39616;48.872;9.390;2022-12-07T07:27:50;98374.06;;;1.27;100.00
53719;BME280;39616;48.872;9.390;2022-12-07T07:30:20;98384.50;;;1.28;100.00
53719;BME280;39616;48.872;9.390;2022-12-07T07:32:51;98378.81;;;1.25;100.00
53719;BME280;39616;48.872;9.390;2022-12-07T07:35:21;98381.84;;;1.28;100.00
53719;BME280;39616;48.872;9.390;2022-12-07T07:37:51;98381.16;;;1.33;100.00
53719;BME280;39616;48.872;9.390;2022-12-07T07:40:22;98374.97;;;1.32;100.00
53719;BME280;39616;48.872;9.390;2022-12-07T07:42:53;98382.53;;;1.35;100.00
53719;BME280;39616;48.872;9.390;2022-12-07T07:45:25;98377.88;;;1.42;100.00
53719;BME280;39616;48.872;9.390;2022-12-07T07:47:56;98379.28;;;1.45;100.00
53719;BME280;39616;48.872;9.390;2022-12-07T07:50:26;98385.50;;;1.51;100.00
53719;BME280;39616;48.872;9.390;2022-12-07T07:52:57;98388.19;;;1.62;100.00
53719;BME280;39616;48.872;9.390;2022-12-07T07:55:28;98394.69;;;1.66;100.00
53719;BME280;39616;48.872;9.390;2022-12-07T07:57:58;98391.03;;;1.73;100.00
53719;BME280;39616;48.872;9.390;2022-12-07T08:00:29;98383.22;;;1.83;100.00
53719;BME280;39616;48.872;9.390;2022-12-07T08:03:01;98391.34;;;1.88;100.00
53719;BME280;39616;48.872;9.390;2022-12-07T08:05:32;98394.66;;;1.95;100.00
53719;BME280;39616;48.872;9.390;2022-12-07T08:08:02;98394.78;;;2.00;100.00
53719;BME280;39616;48.872;9.390;2022-12-07T08:10:32;98398.59;;;2.04;100.00
53719;BME280;39616;48.872;9.390;2022-12-07T08:13:04;98397.06;;;2.08;100.00
53719;BME280;39616;48.872;9.390;2022-12-07T08:15:41;98396.19;;;2.20;100.00
53719;BME280;39616;48.872;9.390;2022-12-07T08:18:13;98399.13;;;2.18;100.00
53719;BME280;39616;48.872;9.390;2022-12-07T08:20:44;98392.00;;;2.24;100.00
53719;BME280;39616;48.872;9.390;2022-12-07T08:23:14;98393.13;;;2.28;100.00
53719;BME280;39616;48.872;9.390;2022-12-07T08:25:45;98389.50;;;2.34;100.00
53719;BME280;39616;48.872;9.390;2022-12-07T08:28:15;98394.72;;;2.40;100.00
53719;BME280;39616;48.872;9.390;2022-12-07T08:30:46;98397.22;;;2.47;100.00
53719;BME280;39616;48.872;9.390;2022-12-07T08:33:16;98403.25;;;2.54;100.00
53719;BME280;39616;48.872;9.390;2022-12-07T08:35:46;98403.78;;;2.56;100.00
53719;BME280;39616;48.872;9.390;2022-12-07T08:38:17;98400.38;;;2.61;100.00
53719;BME280;39616;48.872;9.390;2022-12-07T08:40:54;98403.66;;;2.63;100.00
53719;BME280;39616;48.872;9.390;2022-12-07T08:43:26;98406.41;;;2.68;97.30
53719;BME280;39616;48.872;9.390;2022-12-07T08:46:06;98407.53;;;2.72;98.39
53719;BME280;39616;48.872;9.390;2022-12-07T08:48:42;98402.28;;;2.77;98.08
53719;BME280;39616;48.872;9.390;2022-12-07T08:51:14;98395.38;;;2.81;97.72
53719;BME280;39616;48.872;9.390;2022-12-07T08:53:45;98404.78;;;2.84;95.07
53719;BME280;39616;48.872;9.390;2022-12-07T08:56:15;98402.81;;;2.96;91.05
53719;BME280;39616;48.872;9.390;2022-12-07T08:58:46;98404.38;;;2.92;91.38
53719;BME280;39616;48.872;9.390;2022-12-07T09:01:17;98405.56;;;3.01;91.43
53719;BME280;39616;48.872;9.390;2022-12-07T09:03:47;98403.69;;;3.02;91.11
53719;BME280;39616;48.872;9.390;2022-12-07T09:06:18;98409.47;;;3.10;88.66
53719;BME280;39616;48.872;9.390;2022-12-07T09:08:51;98397.53;;;3.18;88.21
53719;BME280;39616;48.872;9.390;2022-12-07T09:11:25;98400.75;;;3.20;87.52
53719;BME280;39616;48.872;9.390;2022-12-07T09:13:56;98393.44;;;3.32;87.95
53719;BME280;39616;48.872;9.390;2022-12-07T09:16:26;98401.53;;;3.37;84.10
53719;BME280;39616;48.872;9.390;2022-12-07T09:18:56;98403.22;;;3.44;85.90
53719;BME280;39616;48.872;9.390;2022-12-07T09:21:27;98399.00;;;3.48;84.14
53719;BME280;39616;48.872;9.390;2022-12-07T09:23:57;98406.06;;;3.54;84.13
53719;BME280;39616;48.872;9.390;2022-12-07T09:26:28;98401.22;;;3.56;84.75
53719;BME280;39616;48.872;9.390;2022-12-07T09:28:58;98402.19;;;3.67;86.08
53719;BME280;39616;48.872;9.390;2022-12-07T09:31:30;98400.13;;;3.74;85.31
53719;BME280;39616;48.872;9.390;2022-12-07T09:34:00;98412.53;;;3.80;83.90
53719;BME280;39616;48.872;9.390;2022-12-07T09:36:31;98410.66;;;3.80;82.95
53719;BME280;39616;48.872;9.390;2022-12-07T09:39:04;98399.81;;;3.70;81.33
53719;BME280;39616;48.872;9.390;2022-12-07T09:41:38;98405.03;;;3.82;81.03
53719;BME280;39616;48.872;9.390;2022-12-07T09:44:24;98410.22;;;3.67;82.75
53719;BME280;39616;48.872;9.390;2022-12-07T09:46:55;98402.81;;;3.74;83.87
53719;BME280;39616;48.872;9.390;2022-12-07T09:49:29;98396.44;;;3.80;84.74
53719;BME280;39616;48.872;9.390;2022-12-07T09:54:40;98396.00;;;3.88;84.95
53719;BME280;39616;48.872;9.390;2022-12-07T09:57:12;98396.19;;;3.81;85.04
53719;BME280;39616;48.872;9.390;2022-12-07T09:59:42;98393.28;;;3.83;85.38
53719;BME280;39616;48.872;9.390;2022-12-07T10:02:37;98384.59;;;3.76;85.41
53719;BME280;39616;48.872;9.390;2022-12-07T10:05:13;98384.16;;;3.84;85.58
53719;BME280;39616;48.872;9.390;2022-12-07T10:07:44;98386.06;;;3.88;84.68
53719;BME280;39616;48.872;9.390;2022-12-07T10:10:19;98381.59;;;3.72;85.68
53719;BME280;39616;48.872;9.390;2022-12-07T10:18:39;98376.03;;;3.35;85.92
53719;BME280;39616;48.872;9.390;2022-12-07T10:21:14;98380.41;;;3.41;87.00
53719;BME280;39616;48.872;9.390;2022-12-07T10:26:40;98380.16;;;3.43;88.22
53719;BME280;39616;48.872;9.390;2022-12-07T10:29:21;98371.59;;;3.46;87.66
53719;BME280;39616;48.872;9.390;2022-12-07T10:32:00;98372.63;;;3.39;87.94
53719;BME280;39616;48.872;9.390;2022-12-07T10:34:34;98369.47;;;3.26;88.89
53719;BME280;39616;48.872;9.390;2022-12-07T10:39:49;98372.34;;;3.41;87.83
53719;BME280;39616;48.872;9.390;2022-12-07T10:48:16;98361.59;;;3.36;88.65
53719;BME280;39616;48.872;9.390;2022-12-07T10:56:38;98354.22;;;3.26;87.92
53719;BME280;39616;48.872;9.390;2022-12-07T11:05:39;98344.28;;;3.27;91.51
53719;BME280;39616;48.872;9.390;2022-12-07T11:08:33;98333.56;;;3.27;91.62
53719;BME280;39616;48.872;9.390;2022-12-07T11:11:16;98338.19;;;3.53;94.04
53719;BME280;39616;48.872;9.390;2022-12-07T11:16:52;98337.50;;;3.41;94.87
53719;BME280;39616;48.872;9.390;2022-12-07T11:22:13;98334.16;;;3.51;98.74
53719;BME280;39616;48.872;9.390;2022-12-07T11:28:16;98332.66;;;3.38;98.18
53719;BME280;39616;48.872;9.390;2022-12-07T11:31:00;98332.28;;;3.51;99.53
53719;BME280;39616;48.872;9.390;2022-12-07T11:33:52;98318.28;;;3.49;100.00
53719;BME280;39616;48.872;9.390;2022-12-07T11:36:43;98326.28;;;3.44;99.64
53719;BME280;39616;48.872;9.390;2022-12-07T11:39:42;98317.00;;;3.52;100.00
53719;BME280;39616;48.872;9.390;2022-12-07T11:42:30;98313.50;;;3.51;100.00
53719;BME280;39616;48.872;9.390;2022-12-07T11:45:16;98315.81;;;3.65;100.00
53719;BME280;39616;48.872;9.390;2022-12-07T11:50:52;98305.97;;;3.48;100.00
53719;BME280;39616;48.872;9.390;2022-12-07T11:53:58;98301.16;;;3.50;100.00
53719;BME280;39616;48.872;9.390;2022-12-07T11:56:34;98303.31;;;3.53;100.00
53719;BME280;39616;48.872;9.390;2022-12-07T11:59:12;98298.38;;;3.40;100.00
53719;BME280;39616;48.872;9.390;2022-12-07T12:02:12;98301.41;;;3.49;100.00
53719;BME280;39616;48.872;9.390;2022-12-07T12:04:58;98297.94;;;3.26;100.00
53719;BME280;39616;48.872;9.390;2022-12-07T12:07:33;98290.63;;;3.44;100.00
53719;BME280;39616;48.872;9.390;2022-12-07T12:10:13;98293.38;;;3.27;100.00
53719;BME280;39616;48.872;9.390;2022-12-07T12:18:18;98281.63;;;3.28;100.00
53719;BME280;39616;48.872;9.390;2022-12-07T12:21:04;98288.59;;;3.29;100.00
53719;BME280;39616;48.872;9.390;2022-12-07T12:26:18;98274.69;;;3.32;100.00
53719;BME280;39616;48.872;9.390;2022-12-07T12:29:06;98274.78;;;3.42;100.00
53719;BME280;39616;48.872;9.390;2022-12-07T12:32:15;98275.69;;;3.26;100.00
53719;BME280;39616;48.872;9.390;2022-12-07T12:43:01;98274.13;;;3.30;100.00
53719;BME280;39616;48.872;9.390;2022-12-07T12:45:32;98278.97;;;3.33;100.00
53719;BME280;39616;48.872;9.390;2022-12-07T12:48:03;98275.38;;;3.22;100.00
53719;BME280;39616;48.872;9.390;2022-12-07T12:50:35;98276.66;;;3.20;100.00
53719;BME280;39616;48.872;9.390;2022-12-07T12:53:16;98263.22;;;3.36;100.00
53719;BME280;39616;48.872;9.390;2022-12-07T12:56:17;98266.38;;;3.33;100.00
53719;BME280;39616;48.872;9.390;2022-12-07T12:59:23;98267.38;;;3.27;100.00
53719;BME280;39616;48.872;9.390;2022-12-07T13:15:44;98248.00;;;3.20;100.00
53719;BME280;39616;48.872;9.390;2022-12-07T13:26:23;98234.28;;;3.17;100.00
53719;BME280;39616;48.872;9.390;2022-12-07T13:29:15;98232.19;;;3.19;100.00
53719;BME280;39616;48.872;9.390;2022-12-07T13:31:54;98234.28;;;3.17;100.00
53719;BME280;39616;48.872;9.390;2022-12-07T13:37:12;98232.81;;;3.26;100.00
53719;BME280;39616;48.872;9.390;2022-12-07T13:39:49;98234.56;;;3.15;100.00
53719;BME280;39616;48.872;9.390;2022-12-07T13:42:31;98228.44;;;3.20;100.00
53719;BME280;39616;48.872;9.390;2022-12-07T13:45:26;98230.06;;;3.21;100.00
53719;BME280;39616;48.872;9.390;2022-12-07T13:48:36;98223.38;;;3.23;100.00
53719;BME280;39616;48.872;9.390;2022-12-07T13:51:26;98235.75;;;3.24;100.00
53719;BME280;39616;48.872;9.390;2022-12-07T13:54:06;98235.63;;;3.14;100.00
53719;BME280;39616;48.872;9.390;2022-12-07T13:56:39;98230.13;;;3.26;100.00
53719;BME280;39616;48.872;9.390;2022-12-07T13:59:14;98226.44;;;3.32;100.00
53719;BME280;39616;48.872;9.390;2022-12-07T14:01:47;98225.19;;;3.39;100.00
53719;BME280;39616;48.872;9.390;2022-12-07T14:06:50;98222.69;;;3.33;100.00
53719;BME280;39616;48.872;9.390;2022-12-07T14:09:23;98233.91;;;3.30;100.00
53719;BME280;39616;48.872;9.390;2022-12-07T14:11:56;98232.75;;;3.21;100.00
53719;BME280;39616;48.872;9.390;2022-12-07T14:14:29;98231.22;;;3.30;100.00
53719;BME280;39616;48.872;9.390;2022-12-07T14:17:16;98224.63;;;3.37;100.00
53719;BME280;39616;48.872;9.390;2022-12-07T14:19:52;98229.75;;;3.39;100.00
53719;BME280;39616;48.872;9.390;2022-12-07T14:30:30;98223.53;;;3.38;100.00
53719;BME280;39616;48.872;9.390;2022-12-07T14:33:03;98222.44;;;3.34;100.00
53719;BME280;39616;48.872;9.390;2022-12-07T14:35:33;98221.41;;;3.35;100.00
53719;BME280;39616;48.872;9.390;2022-12-07T14:38:04;98226.19;;;3.33;100.00
53719;BME280;39616;48.872;9.390;2022-12-07T14:40:34;98220.56;;;3.35;100.00
53719;BME280;39616;48.872;9.390;2022-12-07T14:43:12;98225.25;;;3.23;100.00
53719;BME280;39616;48.872;9.390;2022-12-07T14:45:46;98215.91;;;3.25;100.00
53719;BME280;39616;48.872;9.390;2022-12-07T14:48:16;98212.56;;;3.13;100.00
53719;BME280;39616;48.872;9.390;2022-12-07T14:50:52;98223.53;;;3.11;100.00
53719;BME280;39616;48.872;9.390;2022-12-07T14:53:29;98230.50;;;3.12;100.00
53719;BME280;39616;48.872;9.390;2022-12-07T14:56:00;98219.22;;;3.10;100.00
53719;BME280;39616;48.872;9.390;2022-12-07T14:58:31;98233.63;;;3.04;100.00
53719;BME280;39616;48.872;9.390;2022-12-07T15:01:02;98231.56;;;2.89;100.00
53719;BME280;39616;48.872;9.390;2022-12-07T15:03:33;98230.69;;;2.84;100.00
53719;BME280;39616;48.872;9.390;2022-12-07T15:06:05;98232.06;;;2.86;100.00
53719;BME280;39616;48.872;9.390;2022-12-07T15:08:36;98226.38;;;2.83;100.00
53719;BME280;39616;48.872;9.390;2022-12-07T15:11:11;98235.22;;;2.83;100.00
53719;BME280;39616;48.872;9.390;2022-12-07T15:13:42;98234.72;;;2.86;100.00
53719;BME280;39616;48.872;9.390;2022-12-07T15:16:31;98234.00;;;2.91;100.00
53719;BME280;39616;48.872;9.390;2022-12-07T15:19:02;98221.97;;;2.94;100.00
53719;BME280;39616;48.872;9.390;2022-12-07T15:21:32;98229.47;;;2.92;100.00
53719;BME280;39616;48.872;9.390;2022-12-07T15:24:02;98228.66;;;2.91;100.00
53719;BME280;39616;48.872;9.390;2022-12-07T15:26:33;98234.41;;;2.83;100.00
53719;BME280;39616;48.872;9.390;2022-12-07T15:29:03;98231.69;;;2.78;100.00
53719;BME280;39616;48.872;9.390;2022-12-07T15:31:34;98241.34;;;2.79;100.00
53719;BME280;39616;48.872;9.390;2022-12-07T15:34:05;98233.88;;;2.81;100.00
53719;BME280;39616;48.872;9.390;2022-12-07T15:36:35;98234.00;;;2.69;100.00
53719;BME280;39616;48.872;9.390;2022-12-07T15:39:05;98222.75;;;2.72;100.00
53719;BME280;39616;48.872;9.390;2022-12-07T15:41:36;98222.28;;;2.75;100.00